sensor_id;sensor_type;location;lat;lon;timestamp;P1;durP1;ratioP1;P2;durP2;ratioP2
59024;SDS011;44806;48.008;13.666;2024-03-08T00:01:06;21.42;;;9.20;;
59024;SDS011;44806;48.008;13.666;2024-03-08T00:03:34;22.67;;;10.13;;
59024;SDS011;44806;48.008;13.666;2024-03-08T00:06:01;19.13;;;8.70;;
59024;SDS011;44806;48.008;13.666;2024-03-08T00:08:29;21.25;;;8.45;;
59024;SDS011;44806;48.008;13.666;2024-03-08T00:10:56;21.02;;;10.07;;
59024;SDS011;44806;48.008;13.666;2024-03-08T00:13:24;19.38;;;9.50;;
59024;SDS011;44806;48.008;13.666;2024-03-08T00:15:52;16.85;;;8.93;;
59024;SDS011;44806;48.008;13.666;2024-03-08T00:18:21;19.95;;;8.57;;
59024;SDS011;44806;48.008;13.666;2024-03-08T00:20:48;23.55;;;10.20;;
59024;SDS011;44806;48.008;13.666;2024-03-08T00:23:16;20.27;;;8.85;;
59024;SDS011;44806;48.008;13.666;2024-03-08T00:25:43;21.25;;;9.90;;
59024;SDS011;44806;48.008;13.666;2024-03-08T00:28:10;17.80;;;8.95;;
59024;SDS011;44806;48.008;13.666;2024-03-08T00:30:40;21.90;;;8.68;;
59024;SDS011;44806;48.008;13.666;2024-03-08T00:33:09;24.27;;;10.93;;
59024;SDS011;44806;48.008;13.666;2024-03-08T00:35:36;20.45;;;10.00;;
59024;SDS011;44806;48.008;13.666;2024-03-08T00:38:03;25.02;;;11.57;;
59024;SDS011;44806;48.008;13.666;2024-03-08T00:40:30;21.25;;;9.65;;
59024;SDS011;44806;48.008;13.666;2024-03-08T00:42:57;26.90;;;11.10;;
59024;SDS011;44806;48.008;13.666;2024-03-08T00:45:24;20.88;;;9.18;;
59024;SDS011;44806;48.008;13.666;2024-03-08T00:47:51;21.75;;;8.68;;
59024;SDS011;44806;48.008;13.666;2024-03-08T00:50:20;20.73;;;9.85;;
59024;SDS011;44806;48.008;13.666;2024-03-08T00:52:47;23.27;;;9.95;;
59024;SDS011;44806;48.008;13.666;2024-03-08T00:55:15;21.60;;;9.80;;
59024;SDS011;44806;48.008;13.666;2024-03-08T00:57:42;24.80;;;9.68;;
59024;SDS011;44806;48.008;13.666;2024-03-08T01:00:09;24.42;;;10.85;;
59024;SDS011;44806;48.008;13.666;2024-03-08T01:02:37;20.38;;;9.93;;
59024;SDS011;44806;48.008;13.666;2024-03-08T01:05:05;27.02;;;11.32;;
59024;SDS011;44806;48.008;13.666;2024-03-08T01:07:34;21.27;;;8.90;;
59024;SDS011;44806;48.008;13.666;2024-03-08T01:10:01;21.83;;;9.00;;
59024;SDS011;44806;48.008;13.666;2024-03-08T01:12:28;23.88;;;10.50;;
59024;SDS011;44806;48.008;13.666;2024-03-08T01:14:55;26.17;;;10.77;;
59024;SDS011;44806;48.008;13.666;2024-03-08T01:17:23;26.17;;;12.40;;
59024;SDS011;44806;48.008;13.666;2024-03-08T01:19:51;26.80;;;12.18;;
59024;SDS011;44806;48.008;13.666;2024-03-08T01:22:18;20.77;;;8.30;;
59024;SDS011;44806;48.008;13.666;2024-03-08T01:24:46;25.00;;;10.25;;
59024;SDS011;44806;48.008;13.666;2024-03-08T01:27:14;27.08;;;12.65;;
59024;SDS011;44806;48.008;13.666;2024-03-08T01:29:41;28.10;;;13.80;;
59024;SDS011;44806;48.008;13.666;2024-03-08T01:32:08;20.38;;;9.35;;
59024;SDS011;44806;48.008;13.666;2024-03-08T01:34:35;27.30;;;11.48;;
59024;SDS011;44806;48.008;13.666;2024-03-08T01:37:02;31.90;;;13.15;;
59024;SDS011;44806;48.008;13.666;2024-03-08T01:39:29;30.45;;;10.85;;
59024;SDS011;44806;48.008;13.666;2024-03-08T01:41:58;25.83;;;10.60;;
59024;SDS011;44806;48.008;13.666;2024-03-08T01:44:26;31.45;;;13.38;;
59024;SDS011;44806;48.008;13.666;2024-03-08T01:46:53;32.83;;;12.98;;
59024;SDS011;44806;48.008;13.666;2024-03-08T01:49:21;33.40;;;14.45;;
59024;SDS011;44806;48.008;13.666;2024-03-08T01:51:49;25.70;;;12.43;;
59024;SDS011;44806;48.008;13.666;2024-03-08T01:54:17;34.40;;;12.85;;
59024;SDS011;44806;48.008;13.666;2024-03-08T01:56:45;33.13;;;12.77;;
59024;SDS011;44806;48.008;13.666;2024-03-08T01:59:15;33.10;;;12.73;;
59024;SDS011;44806;48.008;13.666;2024-03-08T02:01:42;31.05;;;13.20;;
59024;SDS011;44806;48.008;13.666;2024-03-08T02:04:10;33.85;;;13.57;;
59024;SDS011;44806;48.008;13.666;2024-03-08T02:06:37;33.13;;;14.02;;
59024;SDS011;44806;48.008;13.666;2024-03-08T02:09:04;33.60;;;11.88;;
59024;SDS011;44806;48.008;13.666;2024-03-08T02:11:32;27.45;;;11.40;;
59024;SDS011;44806;48.008;13.666;2024-03-08T02:13:59;38.05;;;15.75;;
59024;SDS011;44806;48.008;13.666;2024-03-08T02:16:28;38.00;;;13.93;;
59024;SDS011;44806;48.008;13.666;2024-03-08T02:18:55;32.75;;;12.80;;
59024;SDS011;44806;48.008;13.666;2024-03-08T02:21:24;31.60;;;13.27;;
59024;SDS011;44806;48.008;13.666;2024-03-08T02:23:51;35.70;;;15.77;;
59024;SDS011;44806;48.008;13.666;2024-03-08T02:26:19;33.00;;;13.57;;
59024;SDS011;44806;48.008;13.666;2024-03-08T02:28:46;38.97;;;13.82;;
59024;SDS011;44806;48.008;13.666;2024-03-08T02:31:14;39.15;;;14.00;;
59024;SDS011;44806;48.008;13.666;2024-03-08T02:33:41;41.72;;;14.60;;
59024;SDS011;44806;48.008;13.666;2024-03-08T02:36:08;43.28;;;15.73;;
59024;SDS011;44806;48.008;13.666;2024-03-08T02:38:38;40.70;;;14.32;;
59024;SDS011;44806;48.008;13.666;2024-03-08T02:41:06;41.67;;;17.30;;
59024;SDS011;44806;48.008;13.666;2024-03-08T02:43:33;40.47;;;16.60;;
59024;SDS011;44806;48.008;13.666;2024-03-08T02:46:01;37.05;;;14.30;;
59024;SDS011;44806;48.008;13.666;2024-03-08T02:48:28;42.38;;;15.15;;
59024;SDS011;44806;48.008;13.666;2024-03-08T02:50:55;39.65;;;15.77;;
59024;SDS011;44806;48.008;13.666;2024-03-08T02:53:23;45.38;;;15.52;;
59024;SDS011;44806;48.008;13.666;2024-03-08T02:55:52;39.78;;;16.50;;
59024;SDS011;44806;48.008;13.666;2024-03-08T02:58:20;39.83;;;16.35;;
59024;SDS011;44806;48.008;13.666;2024-03-08T03:00:47;44.00;;;16.20;;
59024;SDS011;44806;48.008;13.666;2024-03-08T03:03:14;42.67;;;17.58;;
59024;SDS011;44806;48.008;13.666;2024-03-08T03:05:42;40.22;;;14.02;;
59024;SDS011;44806;48.008;13.666;2024-03-08T03:08:09;36.30;;;14.65;;
59024;SDS011;44806;48.008;13.666;2024-03-08T03:10:37;44.55;;;17.20;;
59024;SDS011;44806;48.008;13.666;2024-03-08T03:13:05;43.78;;;18.00;;
59024;SDS011;44806;48.008;13.666;2024-03-08T03:15:33;41.33;;;15.98;;
59024;SDS011;44806;48.008;13.666;2024-03-08T03:18:01;47.58;;;17.33;;
59024;SDS011;44806;48.008;13.666;2024-03-08T03:20:29;42.97;;;15.18;;
59024;SDS011;44806;48.008;13.666;2024-03-08T03:23:02;47.63;;;16.75;;
59024;SDS011;44806;48.008;13.666;2024-03-08T03:25:29;40.13;;;16.02;;
59024;SDS011;44806;48.008;13.666;2024-03-08T03:28:00;43.60;;;16.33;;
59024;SDS011;44806;48.008;13.666;2024-03-08T03:30:28;38.80;;;14.65;;
59024;SDS011;44806;48.008;13.666;2024-03-08T03:32:58;42.42;;;17.27;;
59024;SDS011;44806;48.008;13.666;2024-03-08T03:35:26;39.75;;;14.45;;
59024;SDS011;44806;48.008;13.666;2024-03-08T03:37:54;41.67;;;15.70;;
59024;SDS011;44806;48.008;13.666;2024-03-08T03:40:31;39.22;;;14.45;;
59024;SDS011;44806;48.008;13.666;2024-03-08T03:42:58;45.53;;;18.52;;
59024;SDS011;44806;48.008;13.666;2024-03-08T03:45:26;43.22;;;17.55;;
59024;SDS011;44806;48.008;13.666;2024-03-08T03:47:58;41.22;;;16.80;;
59024;SDS011;44806;48.008;13.666;2024-03-08T03:50:25;35.63;;;14.20;;
59024;SDS011;44806;48.008;13.666;2024-03-08T03:52:52;44.33;;;17.55;;
59024;SDS011;44806;48.008;13.666;2024-03-08T03:55:19;38.35;;;13.93;;
59024;SDS011;44806;48.008;13.666;2024-03-08T03:57:47;43.75;;;17.92;;
59024;SDS011;44806;48.008;13.666;2024-03-08T04:00:14;44.10;;;16.00;;
59024;SDS011;44806;48.008;13.666;2024-03-08T04:02:43;44.35;;;16.60;;
59024;SDS011;44806;48.008;13.666;2024-03-08T04:05:10;43.20;;;15.55;;
59024;SDS011;44806;48.008;13.666;2024-03-08T04:07:37;46.53;;;17.70;;
59024;SDS011;44806;48.008;13.666;2024-03-08T04:10:06;44.45;;;16.35;;
59024;SDS011;44806;48.008;13.666;2024-03-08T04:12:35;42.58;;;16.73;;
59024;SDS011;44806;48.008;13.666;2024-03-08T04:15:02;44.65;;;19.30;;
59024;SDS011;44806;48.008;13.666;2024-03-08T04:17:32;33.65;;;15.05;;
59024;SDS011;44806;48.008;13.666;2024-03-08T04:20:02;41.95;;;18.05;;
59024;SDS011;44806;48.008;13.666;2024-03-08T04:22:35;37.63;;;14.43;;
59024;SDS011;44806;48.008;13.666;2024-03-08T04:25:02;42.40;;;15.35;;
59024;SDS011;44806;48.008;13.666;2024-03-08T04:27:29;43.55;;;16.63;;
59024;SDS011;44806;48.008;13.666;2024-03-08T04:29:58;41.08;;;16.05;;
59024;SDS011;44806;48.008;13.666;2024-03-08T04:32:25;43.60;;;18.42;;
59024;SDS011;44806;48.008;13.666;2024-03-08T04:34:54;43.50;;;17.27;;
59024;SDS011;44806;48.008;13.666;2024-03-08T04:37:23;46.25;;;18.52;;
59024;SDS011;44806;48.008;13.666;2024-03-08T04:39:50;38.80;;;17.08;;
59024;SDS011;44806;48.008;13.666;2024-03-08T04:42:17;40.67;;;16.70;;
59024;SDS011;44806;48.008;13.666;2024-03-08T04:44:45;45.33;;;18.25;;
59024;SDS011;44806;48.008;13.666;2024-03-08T04:47:12;46.13;;;19.02;;
59024;SDS011;44806;48.008;13.666;2024-03-08T04:49:39;45.97;;;18.67;;
59024;SDS011;44806;48.008;13.666;2024-03-08T04:52:06;40.65;;;16.80;;
59024;SDS011;44806;48.008;13.666;2024-03-08T04:54:34;43.50;;;17.65;;
59024;SDS011;44806;48.008;13.666;2024-03-08T04:57:01;45.80;;;18.38;;
59024;SDS011;44806;48.008;13.666;2024-03-08T04:59:29;41.30;;;17.35;;
59024;SDS011;44806;48.008;13.666;2024-03-08T05:01:57;48.92;;;16.25;;
59024;SDS011;44806;48.008;13.666;2024-03-08T05:04:24;47.13;;;17.80;;
59024;SDS011;44806;48.008;13.666;2024-03-08T05:06:51;45.10;;;20.75;;
59024;SDS011;44806;48.008;13.666;2024-03-08T05:09:18;48.10;;;19.10;;
59024;SDS011;44806;48.008;13.666;2024-03-08T05:11:47;49.92;;;19.10;;
59024;SDS011;44806;48.008;13.666;2024-03-08T05:14:15;40.58;;;18.00;;
59024;SDS011;44806;48.008;13.666;2024-03-08T05:16:45;46.78;;;18.58;;
59024;SDS011;44806;48.008;13.666;2024-03-08T05:19:13;52.60;;;20.48;;
59024;SDS011;44806;48.008;13.666;2024-03-08T05:21:42;40.05;;;17.17;;
59024;SDS011;44806;48.008;13.666;2024-03-08T05:24:10;52.50;;;18.50;;
59024;SDS011;44806;48.008;13.666;2024-03-08T05:26:38;35.92;;;16.40;;
59024;SDS011;44806;48.008;13.666;2024-03-08T05:29:06;44.67;;;18.23;;
59024;SDS011;44806;48.008;13.666;2024-03-08T05:31:36;49.83;;;20.17;;
59024;SDS011;44806;48.008;13.666;2024-03-08T05:34:09;51.42;;;18.38;;
59024;SDS011;44806;48.008;13.666;2024-03-08T05:36:36;51.65;;;20.23;;
59024;SDS011;44806;48.008;13.666;2024-03-08T05:39:03;45.42;;;19.77;;
59024;SDS011;44806;48.008;13.666;2024-03-08T05:41:31;48.60;;;17.45;;
59024;SDS011;44806;48.008;13.666;2024-03-08T05:43:58;46.95;;;20.30;;
59024;SDS011;44806;48.008;13.666;2024-03-08T05:46:27;43.83;;;17.08;;
59024;SDS011;44806;48.008;13.666;2024-03-08T05:48:54;41.92;;;16.45;;
59024;SDS011;44806;48.008;13.666;2024-03-08T05:51:23;49.70;;;17.67;;
59024;SDS011;44806;48.008;13.666;2024-03-08T05:53:51;45.92;;;15.38;;
59024;SDS011;44806;48.008;13.666;2024-03-08T05:56:20;44.67;;;17.48;;
59024;SDS011;44806;48.008;13.666;2024-03-08T05:58:48;43.50;;;16.08;;
59024;SDS011;44806;48.008;13.666;2024-03-08T06:01:15;48.50;;;19.30;;
59024;SDS011;44806;48.008;13.666;2024-03-08T06:03:44;33.10;;;15.43;;
59024;SDS011;44806;48.008;13.666;2024-03-08T06:06:12;45.63;;;16.80;;
59024;SDS011;44806;48.008;13.666;2024-03-08T06:08:40;44.60;;;17.55;;
59024;SDS011;44806;48.008;13.666;2024-03-08T06:11:08;39.17;;;17.40;;
59024;SDS011;44806;48.008;13.666;2024-03-08T06:13:35;47.03;;;17.88;;
59024;SDS011;44806;48.008;13.666;2024-03-08T06:16:02;51.78;;;18.27;;
59024;SDS011;44806;48.008;13.666;2024-03-08T06:18:30;48.50;;;16.88;;
59024;SDS011;44806;48.008;13.666;2024-03-08T06:20:58;44.70;;;16.67;;
59024;SDS011;44806;48.008;13.666;2024-03-08T06:23:25;42.67;;;16.67;;
59024;SDS011;44806;48.008;13.666;2024-03-08T06:25:53;43.40;;;16.40;;
59024;SDS011;44806;48.008;13.666;2024-03-08T06:28:20;42.97;;;17.08;;
59024;SDS011;44806;48.008;13.666;2024-03-08T06:30:47;41.15;;;15.25;;
59024;SDS011;44806;48.008;13.666;2024-03-08T06:33:15;41.05;;;15.70;;
59024;SDS011;44806;48.008;13.666;2024-03-08T06:35:43;38.50;;;16.13;;
59024;SDS011;44806;48.008;13.666;2024-03-08T06:38:11;38.92;;;15.27;;
59024;SDS011;44806;48.008;13.666;2024-03-08T06:40:42;40.92;;;16.50;;
59024;SDS011;44806;48.008;13.666;2024-03-08T06:43:09;37.45;;;15.90;;
59024;SDS011;44806;48.008;13.666;2024-03-08T06:45:41;39.88;;;16.40;;
59024;SDS011;44806;48.008;13.666;2024-03-08T06:48:13;34.13;;;13.20;;
59024;SDS011;44806;48.008;13.666;2024-03-08T06:50:40;38.53;;;13.95;;
59024;SDS011;44806;48.008;13.666;2024-03-08T06:53:07;35.40;;;14.57;;
59024;SDS011;44806;48.008;13.666;2024-03-08T06:55:36;31.77;;;14.13;;
59024;SDS011;44806;48.008;13.666;2024-03-08T06:58:03;34.40;;;14.85;;
59024;SDS011;44806;48.008;13.666;2024-03-08T07:00:31;33.65;;;13.70;;
59024;SDS011;44806;48.008;13.666;2024-03-08T07:02:59;38.30;;;14.55;;
59024;SDS011;44806;48.008;13.666;2024-03-08T07:05:26;42.00;;;17.48;;
59024;SDS011;44806;48.008;13.666;2024-03-08T07:07:54;35.15;;;13.35;;
59024;SDS011;44806;48.008;13.666;2024-03-08T07:10:21;34.95;;;14.30;;
59024;SDS011;44806;48.008;13.666;2024-03-08T07:12:51;35.47;;;14.52;;
59024;SDS011;44806;48.008;13.666;2024-03-08T07:15:19;37.95;;;16.30;;
59024;SDS011;44806;48.008;13.666;2024-03-08T07:17:46;38.50;;;14.98;;
59024;SDS011;44806;48.008;13.666;2024-03-08T07:20:13;37.63;;;15.10;;
59024;SDS011;44806;48.008;13.666;2024-03-08T07:22:44;40.10;;;14.90;;
59024;SDS011;44806;48.008;13.666;2024-03-08T07:25:12;34.55;;;13.95;;
59024;SDS011;44806;48.008;13.666;2024-03-08T07:27:46;39.65;;;15.27;;
59024;SDS011;44806;48.008;13.666;2024-03-08T07:30:15;35.33;;;15.05;;
59024;SDS011;44806;48.008;13.666;2024-03-08T07:33:03;35.63;;;15.32;;
59024;SDS011;44806;48.008;13.666;2024-03-08T07:35:30;35.70;;;14.90;;
59024;SDS011;44806;48.008;13.666;2024-03-08T07:37:57;38.45;;;14.98;;
59024;SDS011;44806;48.008;13.666;2024-03-08T07:40:25;31.92;;;13.40;;
59024;SDS011;44806;48.008;13.666;2024-03-08T07:42:52;33.75;;;14.85;;
59024;SDS011;44806;48.008;13.666;2024-03-08T07:45:21;35.15;;;15.75;;
59024;SDS011;44806;48.008;13.666;2024-03-08T07:47:48;30.92;;;13.77;;
59024;SDS011;44806;48.008;13.666;2024-03-08T07:50:16;34.25;;;15.55;;
59024;SDS011;44806;48.008;13.666;2024-03-08T07:52:44;36.15;;;16.05;;
59024;SDS011;44806;48.008;13.666;2024-03-08T07:55:11;38.28;;;15.68;;
59024;SDS011;44806;48.008;13.666;2024-03-08T07:57:38;38.10;;;16.10;;
59024;SDS011;44806;48.008;13.666;2024-03-08T08:00:06;41.13;;;17.42;;
59024;SDS011;44806;48.008;13.666;2024-03-08T08:02:35;37.78;;;15.15;;
59024;SDS011;44806;48.008;13.666;2024-03-08T08:05:02;37.55;;;16.05;;
59024;SDS011;44806;48.008;13.666;2024-03-08T08:07:30;41.80;;;16.65;;
59024;SDS011;44806;48.008;13.666;2024-03-08T08:09:56;38.03;;;15.05;;
59024;SDS011;44806;48.008;13.666;2024-03-08T08:12:24;36.40;;;13.88;;
59024;SDS011;44806;48.008;13.666;2024-03-08T08:14:51;35.67;;;14.82;;
59024;SDS011;44806;48.008;13.666;2024-03-08T08:17:18;31.50;;;14.38;;
59024;SDS011;44806;48.008;13.666;2024-03-08T08:19:46;33.42;;;13.88;;
59024;SDS011;44806;48.008;13.666;2024-03-08T08:22:13;34.20;;;13.98;;
59024;SDS011;44806;48.008;13.666;2024-03-08T08:24:40;33.50;;;13.73;;
59024;SDS011;44806;48.008;13.666;2024-03-08T08:27:07;38.67;;;15.35;;
59024;SDS011;44806;48.008;13.666;2024-03-08T08:29:37;39.15;;;15.65;;
59024;SDS011;44806;48.008;13.666;2024-03-08T08:32:04;33.55;;;13.95;;
59024;SDS011;44806;48.008;13.666;2024-03-08T08:34:31;35.72;;;14.40;;
59024;SDS011;44806;48.008;13.666;2024-03-08T08:36:59;33.25;;;14.32;;
59024;SDS011;44806;48.008;13.666;2024-03-08T08:39:27;29.52;;;12.75;;
59024;SDS011;44806;48.008;13.666;2024-03-08T08:41:54;39.63;;;14.18;;
59024;SDS011;44806;48.008;13.666;2024-03-08T08:44:21;29.17;;;13.75;;
59024;SDS011;44806;48.008;13.666;2024-03-08T08:46:48;33.17;;;14.55;;
59024;SDS011;44806;48.008;13.666;2024-03-08T08:49:16;33.53;;;13.93;;
59024;SDS011;44806;48.008;13.666;2024-03-08T08:51:48;37.97;;;15.82;;
59024;SDS011;44806;48.008;13.666;2024-03-08T08:54:17;34.28;;;14.45;;
59024;SDS011;44806;48.008;13.666;2024-03-08T08:56:45;31.88;;;13.23;;
59024;SDS011;44806;48.008;13.666;2024-03-08T08:59:13;32.95;;;12.80;;
59024;SDS011;44806;48.008;13.666;2024-03-08T09:01:41;36.63;;;15.30;;
59024;SDS011;44806;48.008;13.666;2024-03-08T09:04:08;34.22;;;14.45;;
59024;SDS011;44806;48.008;13.666;2024-03-08T09:06:37;39.08;;;16.23;;
59024;SDS011;44806;48.008;13.666;2024-03-08T09:09:06;29.85;;;13.60;;
59024;SDS011;44806;48.008;13.666;2024-03-08T09:11:37;31.58;;;14.60;;
59024;SDS011;44806;48.008;13.666;2024-03-08T09:14:06;33.35;;;13.98;;
59024;SDS011;44806;48.008;13.666;2024-03-08T09:16:33;34.88;;;14.50;;
59024;SDS011;44806;48.008;13.666;2024-03-08T09:19:02;34.55;;;14.80;;
59024;SDS011;44806;48.008;13.666;2024-03-08T09:21:29;31.70;;;13.07;;
59024;SDS011;44806;48.008;13.666;2024-03-08T09:23:56;29.85;;;12.63;;
59024;SDS011;44806;48.008;13.666;2024-03-08T09:26:24;28.23;;;12.15;;
59024;SDS011;44806;48.008;13.666;2024-03-08T09:28:53;28.20;;;14.18;;
59024;SDS011;44806;48.008;13.666;2024-03-08T09:31:21;31.40;;;13.75;;
59024;SDS011;44806;48.008;13.666;2024-03-08T09:33:48;27.63;;;12.35;;
59024;SDS011;44806;48.008;13.666;2024-03-08T09:36:15;30.23;;;12.27;;
59024;SDS011;44806;48.008;13.666;2024-03-08T09:38:43;26.50;;;11.57;;
59024;SDS011;44806;48.008;13.666;2024-03-08T09:41:10;28.55;;;11.52;;
59024;SDS011;44806;48.008;13.666;2024-03-08T09:43:38;32.10;;;14.75;;
59024;SDS011;44806;48.008;13.666;2024-03-08T09:46:06;35.63;;;14.65;;
59024;SDS011;44806;48.008;13.666;2024-03-08T09:48:35;33.45;;;14.38;;
59024;SDS011;44806;48.008;13.666;2024-03-08T09:51:03;33.08;;;15.27;;
59024;SDS011;44806;48.008;13.666;2024-03-08T09:53:32;35.78;;;15.80;;
59024;SDS011;44806;48.008;13.666;2024-03-08T09:55:59;32.15;;;14.82;;
59024;SDS011;44806;48.008;13.666;2024-03-08T09:58:29;33.22;;;13.23;;
59024;SDS011;44806;48.008;13.666;2024-03-08T10:01:23;31.40;;;13.73;;
59024;SDS011;44806;48.008;13.666;2024-03-08T10:03:51;33.25;;;14.45;;
59024;SDS011;44806;48.008;13.666;2024-03-08T10:06:22;30.35;;;13.23;;
59024;SDS011;44806;48.008;13.666;2024-03-08T10:08:49;34.22;;;14.70;;
59024;SDS011;44806;48.008;13.666;2024-03-08T10:11:17;31.20;;;12.25;;
59024;SDS011;44806;48.008;13.666;2024-03-08T10:13:44;28.52;;;12.43;;
59024;SDS011;44806;48.008;13.666;2024-03-08T10:16:14;31.35;;;14.05;;
59024;SDS011;44806;48.008;13.666;2024-03-08T10:18:44;29.83;;;12.18;;
59024;SDS011;44806;48.008;13.666;2024-03-08T10:21:11;30.27;;;13.20;;
59024;SDS011;44806;48.008;13.666;2024-03-08T10:23:40;29.52;;;13.25;;
59024;SDS011;44806;48.008;13.666;2024-03-08T10:26:11;27.92;;;12.68;;
59024;SDS011;44806;48.008;13.666;2024-03-08T10:28:40;27.13;;;11.52;;
59024;SDS011;44806;48.008;13.666;2024-03-08T10:31:08;28.15;;;12.60;;
59024;SDS011;44806;48.008;13.666;2024-03-08T10:33:35;29.83;;;12.90;;
59024;SDS011;44806;48.008;13.666;2024-03-08T10:36:07;25.15;;;12.82;;
59024;SDS011;44806;48.008;13.666;2024-03-08T10:38:36;28.20;;;12.57;;
59024;SDS011;44806;48.008;13.666;2024-03-08T10:41:04;25.92;;;12.27;;
59024;SDS011;44806;48.008;13.666;2024-03-08T10:43:36;29.23;;;13.32;;
59024;SDS011;44806;48.008;13.666;2024-03-08T10:46:26;26.30;;;11.63;;
59024;SDS011;44806;48.008;13.666;2024-03-08T10:48:57;29.85;;;13.32;;
59024;SDS011;44806;48.008;13.666;2024-03-08T10:51:30;28.42;;;13.18;;
59024;SDS011;44806;48.008;13.666;2024-03-08T10:53:57;23.65;;;11.73;;
59024;SDS011;44806;48.008;13.666;2024-03-08T10:56:28;26.48;;;11.80;;
59024;SDS011;44806;48.008;13.666;2024-03-08T10:58:55;29.40;;;12.77;;
59024;SDS011;44806;48.008;13.666;2024-03-08T11:01:22;27.92;;;13.80;;
59024;SDS011;44806;48.008;13.666;2024-03-08T11:03:51;26.40;;;12.40;;
59024;SDS011;44806;48.008;13.666;2024-03-08T11:06:30;27.33;;;13.02;;
59024;SDS011;44806;48.008;13.666;2024-03-08T11:09:11;27.60;;;12.50;;
59024;SDS011;44806;48.008;13.666;2024-03-08T11:14:51;23.65;;;12.20;;
59024;SDS011;44806;48.008;13.666;2024-03-08T11:17:26;27.92;;;12.55;;
59024;SDS011;44806;48.008;13.666;2024-03-08T11:20:08;20.75;;;9.90;;
59024;SDS011;44806;48.008;13.666;2024-03-08T11:22:42;24.35;;;11.55;;
59024;SDS011;44806;48.008;13.666;2024-03-08T11:28:12;23.92;;;11.82;;
59024;SDS011;44806;48.008;13.666;2024-03-08T11:30:43;22.02;;;10.68;;
59024;SDS011;44806;48.008;13.666;2024-03-08T11:33:12;21.15;;;10.10;;
59024;SDS011;44806;48.008;13.666;2024-03-08T11:35:40;20.65;;;10.32;;
59024;SDS011;44806;48.008;13.666;2024-03-08T11:38:12;24.80;;;11.23;;
59024;SDS011;44806;48.008;13.666;2024-03-08T11:40:41;22.75;;;11.52;;
59024;SDS011;44806;48.008;13.666;2024-03-08T11:43:09;24.38;;;12.02;;
59024;SDS011;44806;48.008;13.666;2024-03-08T11:45:36;28.55;;;12.50;;
59024;SDS011;44806;48.008;13.666;2024-03-08T11:48:06;23.27;;;10.80;;
59024;SDS011;44806;48.008;13.666;2024-03-08T11:50:32;28.35;;;12.55;;
59024;SDS011;44806;48.008;13.666;2024-03-08T11:53:02;23.13;;;10.13;;
59024;SDS011;44806;48.008;13.666;2024-03-08T11:55:32;22.00;;;10.35;;
59024;SDS011;44806;48.008;13.666;2024-03-08T11:58:04;21.30;;;10.07;;
59024;SDS011;44806;48.008;13.666;2024-03-08T12:00:33;20.67;;;9.38;;
59024;SDS011;44806;48.008;13.666;2024-03-08T12:03:04;20.15;;;9.57;;
59024;SDS011;44806;48.008;13.666;2024-03-08T12:05:32;25.92;;;11.35;;
59024;SDS011;44806;48.008;13.666;2024-03-08T12:07:59;23.25;;;10.95;;
59024;SDS011;44806;48.008;13.666;2024-03-08T12:10:27;23.67;;;10.93;;
59024;SDS011;44806;48.008;13.666;2024-03-08T12:12:56;22.13;;;10.73;;
59024;SDS011;44806;48.008;13.666;2024-03-08T12:15:25;21.58;;;9.27;;
59024;SDS011;44806;48.008;13.666;2024-03-08T12:17:53;20.02;;;10.20;;
59024;SDS011;44806;48.008;13.666;2024-03-08T12:20:22;23.70;;;9.98;;
59024;SDS011;44806;48.008;13.666;2024-03-08T12:22:50;24.02;;;10.57;;
59024;SDS011;44806;48.008;13.666;2024-03-08T12:25:18;17.48;;;9.65;;
59024;SDS011;44806;48.008;13.666;2024-03-08T12:27:46;22.15;;;9.98;;
59024;SDS011;44806;48.008;13.666;2024-03-08T12:30:19;18.83;;;8.65;;
59024;SDS011;44806;48.008;13.666;2024-03-08T12:32:48;20.25;;;9.52;;
59024;SDS011;44806;48.008;13.666;2024-03-08T12:35:18;20.17;;;9.85;;
59024;SDS011;44806;48.008;13.666;2024-03-08T12:37:47;23.45;;;9.88;;
59024;SDS011;44806;48.008;13.666;2024-03-08T12:40:16;19.50;;;10.18;;
59024;SDS011;44806;48.008;13.666;2024-03-08T12:42:44;20.58;;;10.07;;
59024;SDS011;44806;48.008;13.666;2024-03-08T12:45:12;20.83;;;9.82;;
59024;SDS011;44806;48.008;13.666;2024-03-08T12:47:41;21.40;;;9.73;;
59024;SDS011;44806;48.008;13.666;2024-03-08T12:50:09;18.65;;;9.48;;
59024;SDS011;44806;48.008;13.666;2024-03-08T12:52:37;22.30;;;11.00;;
59024;SDS011;44806;48.008;13.666;2024-03-08T12:55:04;18.92;;;10.13;;
59024;SDS011;44806;48.008;13.666;2024-03-08T12:57:33;20.00;;;9.45;;
59024;SDS011;44806;48.008;13.666;2024-03-08T13:00:01;22.48;;;11.80;;
59024;SDS011;44806;48.008;13.666;2024-03-08T13:02:29;18.98;;;10.65;;
59024;SDS011;44806;48.008;13.666;2024-03-08T13:04:59;21.83;;;9.70;;
59024;SDS011;44806;48.008;13.666;2024-03-08T13:07:26;21.38;;;9.52;;
59024;SDS011;44806;48.008;13.666;2024-03-08T13:09:53;21.83;;;9.20;;
59024;SDS011;44806;48.008;13.666;2024-03-08T13:12:22;20.05;;;10.27;;
59024;SDS011;44806;48.008;13.666;2024-03-08T13:14:49;23.70;;;10.15;;
59024;SDS011;44806;48.008;13.666;2024-03-08T13:17:16;19.58;;;9.02;;
59024;SDS011;44806;48.008;13.666;2024-03-08T13:19:43;20.30;;;9.95;;
59024;SDS011;44806;48.008;13.666;2024-03-08T13:22:12;18.90;;;9.40;;
59024;SDS011;44806;48.008;13.666;2024-03-08T13:24:41;20.85;;;10.15;;
59024;SDS011;44806;48.008;13.666;2024-03-08T13:27:10;17.77;;;9.38;;
59024;SDS011;44806;48.008;13.666;2024-03-08T13:29:45;19.77;;;9.73;;
59024;SDS011;44806;48.008;13.666;2024-03-08T13:32:14;19.58;;;10.15;;
59024;SDS011;44806;48.008;13.666;2024-03-08T13:34:41;19.85;;;9.68;;
59024;SDS011;44806;48.008;13.666;2024-03-08T13:37:09;21.92;;;10.10;;
59024;SDS011;44806;48.008;13.666;2024-03-08T13:39:39;23.17;;;10.13;;
59024;SDS011;44806;48.008;13.666;2024-03-08T13:42:08;15.95;;;7.55;;
59024;SDS011;44806;48.008;13.666;2024-03-08T13:44:38;22.13;;;10.00;;
59024;SDS011;44806;48.008;13.666;2024-03-08T13:47:06;22.58;;;11.07;;
59024;SDS011;44806;48.008;13.666;2024-03-08T13:49:33;20.40;;;9.15;;
59024;SDS011;44806;48.008;13.666;2024-03-08T13:52:01;18.48;;;9.25;;
59024;SDS011;44806;48.008;13.666;2024-03-08T13:54:30;20.20;;;9.27;;
59024;SDS011;44806;48.008;13.666;2024-03-08T13:56:58;21.15;;;10.15;;
59024;SDS011;44806;48.008;13.666;2024-03-08T13:59:25;21.63;;;9.57;;
59024;SDS011;44806;48.008;13.666;2024-03-08T14:01:54;20.42;;;9.55;;
59024;SDS011;44806;48.008;13.666;2024-03-08T14:04:23;18.80;;;9.00;;
59024;SDS011;44806;48.008;13.666;2024-03-08T14:06:51;18.38;;;9.80;;
59024;SDS011;44806;48.008;13.666;2024-03-08T14:09:22;19.17;;;8.80;;
59024;SDS011;44806;48.008;13.666;2024-03-08T14:11:51;20.48;;;8.85;;
59024;SDS011;44806;48.008;13.666;2024-03-08T14:14:20;16.85;;;8.55;;
59024;SDS011;44806;48.008;13.666;2024-03-08T14:16:48;19.75;;;8.55;;
59024;SDS011;44806;48.008;13.666;2024-03-08T14:19:17;18.77;;;9.38;;
59024;SDS011;44806;48.008;13.666;2024-03-08T14:21:45;17.60;;;8.20;;
59024;SDS011;44806;48.008;13.666;2024-03-08T14:24:13;14.88;;;6.80;;